Terminal Aerodrome Forecast
Issued by NWS

Home | Current Version | Previous Version | Text Only | Print | Product List | Glossary On
Versions: 1 2 3 4 5 6 7 8 9 10 11 12 13 14 15 16 17 18 19 20
000
FTUS46 KSEW 290520
TAFPAE
TAF
KPAE 290520Z 2906/3006 36005KT P6SM SCT250
     FM291200 01005KT P6SM SCT011 BKN250
      TEMPO 2913/2917 OVC011
     FM292000 32006KT P6SM BKN250
     FM300300 36005KT P6SM SCT150 BKN250=

USA.gov is the U.S. government's official web portal to all federal, state and local government web resources and services.